sensor_id;sensor_type;location;lat;lon;timestamp;P1;durP1;ratioP1;P2;durP2;ratioP2
42134;SDS011;28312;43.460;11.810;2023-05-14T00:03:52;0.60;;;0.50;;
42134;SDS011;28312;43.460;11.810;2023-05-14T00:07:56;0.52;;;0.40;;
42134;SDS011;28312;43.460;11.810;2023-05-14T00:12:02;0.40;;;0.22;;
42134;SDS011;28312;43.460;11.810;2023-05-14T00:16:06;0.45;;;0.45;;
42134;SDS011;28312;43.460;11.810;2023-05-14T00:20:10;0.85;;;0.40;;
42134;SDS011;28312;43.460;11.810;2023-05-14T00:24:15;0.75;;;0.47;;
42134;SDS011;28312;43.460;11.810;2023-05-14T00:28:19;0.30;;;0.30;;
42134;SDS011;28312;43.460;11.810;2023-05-14T00:32:23;0.45;;;0.30;;
42134;SDS011;28312;43.460;11.810;2023-05-14T00:36:27;0.32;;;0.32;;
42134;SDS011;28312;43.460;11.810;2023-05-14T00:40:30;0.40;;;0.30;;
42134;SDS011;28312;43.460;11.810;2023-05-14T00:44:35;0.50;;;0.50;;
42134;SDS011;28312;43.460;11.810;2023-05-14T00:48:39;0.40;;;0.40;;
42134;SDS011;28312;43.460;11.810;2023-05-14T00:52:43;0.40;;;0.40;;
42134;SDS011;28312;43.460;11.810;2023-05-14T00:56:46;0.40;;;0.40;;
42134;SDS011;28312;43.460;11.810;2023-05-14T01:00:50;0.30;;;0.30;;
42134;SDS011;28312;43.460;11.810;2023-05-14T01:04:54;0.70;;;0.40;;
42134;SDS011;28312;43.460;11.810;2023-05-14T01:09:00;0.40;;;0.40;;
42134;SDS011;28312;43.460;11.810;2023-05-14T01:13:11;0.35;;;0.30;;
42134;SDS011;28312;43.460;11.810;2023-05-14T01:17:21;0.35;;;0.35;;
42134;SDS011;28312;43.460;11.810;2023-05-14T01:21:38;0.30;;;0.30;;
42134;SDS011;28312;43.460;11.810;2023-05-14T01:25:44;0.30;;;0.30;;
42134;SDS011;28312;43.460;11.810;2023-05-14T01:29:49;0.40;;;0.40;;
42134;SDS011;28312;43.460;11.810;2023-05-14T01:34:04;0.50;;;0.50;;
42134;SDS011;28312;43.460;11.810;2023-05-14T01:42:16;0.55;;;0.30;;
42134;SDS011;28312;43.460;11.810;2023-05-14T01:46:19;0.20;;;0.20;;
42134;SDS011;28312;43.460;11.810;2023-05-14T01:50:26;0.40;;;0.40;;
42134;SDS011;28312;43.460;11.810;2023-05-14T01:54:29;0.77;;;0.38;;
42134;SDS011;28312;43.460;11.810;2023-05-14T01:58:33;0.38;;;0.38;;
42134;SDS011;28312;43.460;11.810;2023-05-14T02:02:36;0.30;;;0.30;;
42134;SDS011;28312;43.460;11.810;2023-05-14T02:06:42;0.60;;;0.40;;
42134;SDS011;28312;43.460;11.810;2023-05-14T02:10:45;0.30;;;0.30;;
42134;SDS011;28312;43.460;11.810;2023-05-14T02:14:48;0.57;;;0.40;;
42134;SDS011;28312;43.460;11.810;2023-05-14T02:18:52;0.40;;;0.30;;
42134;SDS011;28312;43.460;11.810;2023-05-14T02:22:56;0.45;;;0.40;;
42134;SDS011;28312;43.460;11.810;2023-05-14T02:26:59;1.63;;;0.30;;
42134;SDS011;28312;43.460;11.810;2023-05-14T02:31:03;0.43;;;0.43;;
42134;SDS011;28312;43.460;11.810;2023-05-14T02:35:07;0.70;;;0.60;;
42134;SDS011;28312;43.460;11.810;2023-05-14T02:39:11;0.60;;;0.40;;
42134;SDS011;28312;43.460;11.810;2023-05-14T02:43:15;0.38;;;0.38;;
42134;SDS011;28312;43.460;11.810;2023-05-14T02:47:19;0.30;;;0.30;;
42134;SDS011;28312;43.460;11.810;2023-05-14T02:51:25;0.30;;;0.30;;
42134;SDS011;28312;43.460;11.810;2023-05-14T02:55:29;0.70;;;0.40;;
42134;SDS011;28312;43.460;11.810;2023-05-14T02:59:32;0.38;;;0.30;;
42134;SDS011;28312;43.460;11.810;2023-05-14T03:03:36;0.98;;;0.52;;
42134;SDS011;28312;43.460;11.810;2023-05-14T03:07:40;0.40;;;0.40;;
42134;SDS011;28312;43.460;11.810;2023-05-14T03:11:43;0.38;;;0.38;;
42134;SDS011;28312;43.460;11.810;2023-05-14T03:15:47;0.28;;;0.28;;
42134;SDS011;28312;43.460;11.810;2023-05-14T03:19:51;0.32;;;0.30;;
42134;SDS011;28312;43.460;11.810;2023-05-14T03:23:54;0.43;;;0.43;;
42134;SDS011;28312;43.460;11.810;2023-05-14T03:27:57;0.30;;;0.30;;
42134;SDS011;28312;43.460;11.810;2023-05-14T03:32:02;0.40;;;0.40;;
42134;SDS011;28312;43.460;11.810;2023-05-14T03:36:05;0.35;;;0.30;;
42134;SDS011;28312;43.460;11.810;2023-05-14T03:40:09;0.30;;;0.30;;
42134;SDS011;28312;43.460;11.810;2023-05-14T03:44:13;0.77;;;0.47;;
42134;SDS011;28312;43.460;11.810;2023-05-14T03:48:17;0.47;;;0.40;;
42134;SDS011;28312;43.460;11.810;2023-05-14T03:52:21;0.20;;;0.20;;
42134;SDS011;28312;43.460;11.810;2023-05-14T03:56:24;0.22;;;0.22;;
42134;SDS011;28312;43.460;11.810;2023-05-14T04:00:28;0.82;;;0.50;;
42134;SDS011;28312;43.460;11.810;2023-05-14T04:04:31;0.30;;;0.30;;
42134;SDS011;28312;43.460;11.810;2023-05-14T04:08:36;0.68;;;0.43;;
42134;SDS011;28312;43.460;11.810;2023-05-14T04:12:40;0.45;;;0.45;;
42134;SDS011;28312;43.460;11.810;2023-05-14T04:16:44;0.47;;;0.45;;
42134;SDS011;28312;43.460;11.810;2023-05-14T04:20:48;0.25;;;0.25;;
42134;SDS011;28312;43.460;11.810;2023-05-14T04:24:52;1.30;;;0.43;;
42134;SDS011;28312;43.460;11.810;2023-05-14T04:28:55;0.30;;;0.30;;
42134;SDS011;28312;43.460;11.810;2023-05-14T04:32:59;0.47;;;0.30;;
42134;SDS011;28312;43.460;11.810;2023-05-14T04:37:03;0.90;;;0.60;;
42134;SDS011;28312;43.460;11.810;2023-05-14T04:41:06;0.20;;;0.20;;
42134;SDS011;28312;43.460;11.810;2023-05-14T04:45:10;0.30;;;0.30;;
42134;SDS011;28312;43.460;11.810;2023-05-14T04:49:16;1.50;;;0.50;;
42134;SDS011;28312;43.460;11.810;2023-05-14T04:53:19;0.22;;;0.22;;
42134;SDS011;28312;43.460;11.810;2023-05-14T04:57:22;0.32;;;0.32;;
42134;SDS011;28312;43.460;11.810;2023-05-14T05:01:26;1.35;;;0.40;;
42134;SDS011;28312;43.460;11.810;2023-05-14T05:05:29;0.77;;;0.45;;
42134;SDS011;28312;43.460;11.810;2023-05-14T05:09:33;0.40;;;0.30;;
42134;SDS011;28312;43.460;11.810;2023-05-14T05:13:36;0.50;;;0.40;;
42134;SDS011;28312;43.460;11.810;2023-05-14T05:17:39;0.30;;;0.30;;
42134;SDS011;28312;43.460;11.810;2023-05-14T05:21:43;0.25;;;0.25;;
42134;SDS011;28312;43.460;11.810;2023-05-14T05:25:48;0.30;;;0.30;;
42134;SDS011;28312;43.460;11.810;2023-05-14T05:29:52;0.30;;;0.30;;
42134;SDS011;28312;43.460;11.810;2023-05-14T05:33:57;1.45;;;0.70;;
42134;SDS011;28312;43.460;11.810;2023-05-14T05:38:01;0.30;;;0.30;;
42134;SDS011;28312;43.460;11.810;2023-05-14T05:42:06;1.35;;;0.40;;
42134;SDS011;28312;43.460;11.810;2023-05-14T05:46:10;0.40;;;0.32;;
42134;SDS011;28312;43.460;11.810;2023-05-14T05:50:14;0.43;;;0.30;;
42134;SDS011;28312;43.460;11.810;2023-05-14T05:54:18;0.88;;;0.50;;
42134;SDS011;28312;43.460;11.810;2023-05-14T05:58:27;0.50;;;0.40;;
42134;SDS011;28312;43.460;11.810;2023-05-14T06:02:31;1.25;;;0.32;;
42134;SDS011;28312;43.460;11.810;2023-05-14T06:06:35;0.40;;;0.40;;
42134;SDS011;28312;43.460;11.810;2023-05-14T06:10:38;0.32;;;0.32;;
42134;SDS011;28312;43.460;11.810;2023-05-14T06:14:41;0.38;;;0.38;;
42134;SDS011;28312;43.460;11.810;2023-05-14T06:18:45;0.32;;;0.32;;
42134;SDS011;28312;43.460;11.810;2023-05-14T06:22:48;1.13;;;0.32;;
42134;SDS011;28312;43.460;11.810;2023-05-14T06:26:52;0.50;;;0.30;;
42134;SDS011;28312;43.460;11.810;2023-05-14T06:30:55;0.30;;;0.30;;
42134;SDS011;28312;43.460;11.810;2023-05-14T06:34:59;0.63;;;0.38;;
42134;SDS011;28312;43.460;11.810;2023-05-14T06:39:02;0.45;;;0.40;;
42134;SDS011;28312;43.460;11.810;2023-05-14T06:43:07;0.60;;;0.25;;
42134;SDS011;28312;43.460;11.810;2023-05-14T06:47:10;0.45;;;0.35;;
42134;SDS011;28312;43.460;11.810;2023-05-14T06:51:13;0.43;;;0.30;;
42134;SDS011;28312;43.460;11.810;2023-05-14T06:55:17;1.92;;;0.47;;
42134;SDS011;28312;43.460;11.810;2023-05-14T06:59:21;0.25;;;0.20;;
42134;SDS011;28312;43.460;11.810;2023-05-14T07:03:25;0.30;;;0.30;;
42134;SDS011;28312;43.460;11.810;2023-05-14T07:07:29;0.80;;;0.40;;
42134;SDS011;28312;43.460;11.810;2023-05-14T07:11:35;0.30;;;0.30;;
42134;SDS011;28312;43.460;11.810;2023-05-14T07:15:39;0.50;;;0.30;;
42134;SDS011;28312;43.460;11.810;2023-05-14T07:19:43;0.20;;;0.20;;
42134;SDS011;28312;43.460;11.810;2023-05-14T07:23:49;0.20;;;0.20;;
42134;SDS011;28312;43.460;11.810;2023-05-14T07:27:52;1.50;;;0.22;;
42134;SDS011;28312;43.460;11.810;2023-05-14T07:31:55;0.17;;;0.17;;
42134;SDS011;28312;43.460;11.810;2023-05-14T07:35:59;0.52;;;0.30;;
42134;SDS011;28312;43.460;11.810;2023-05-14T07:40:02;0.52;;;0.32;;
42134;SDS011;28312;43.460;11.810;2023-05-14T07:44:06;0.57;;;0.32;;
42134;SDS011;28312;43.460;11.810;2023-05-14T07:48:09;1.00;;;0.47;;
42134;SDS011;28312;43.460;11.810;2023-05-14T07:52:13;0.30;;;0.30;;
42134;SDS011;28312;43.460;11.810;2023-05-14T07:56:17;0.40;;;0.30;;
42134;SDS011;28312;43.460;11.810;2023-05-14T08:00:21;0.93;;;0.30;;
42134;SDS011;28312;43.460;11.810;2023-05-14T08:04:29;2.67;;;0.50;;
42134;SDS011;28312;43.460;11.810;2023-05-14T08:08:32;0.20;;;0.20;;
42134;SDS011;28312;43.460;11.810;2023-05-14T08:12:36;0.57;;;0.35;;
42134;SDS011;28312;43.460;11.810;2023-05-14T08:16:39;0.65;;;0.45;;
42134;SDS011;28312;43.460;11.810;2023-05-14T08:20:42;0.47;;;0.30;;
42134;SDS011;28312;43.460;11.810;2023-05-14T08:24:46;0.22;;;0.20;;
42134;SDS011;28312;43.460;11.810;2023-05-14T08:28:49;0.38;;;0.30;;
42134;SDS011;28312;43.460;11.810;2023-05-14T08:32:53;0.68;;;0.38;;
42134;SDS011;28312;43.460;11.810;2023-05-14T08:36:56;0.60;;;0.32;;
42134;SDS011;28312;43.460;11.810;2023-05-14T08:41:01;0.80;;;0.47;;
42134;SDS011;28312;43.460;11.810;2023-05-14T08:45:14;0.80;;;0.30;;
42134;SDS011;28312;43.460;11.810;2023-05-14T08:53:44;0.20;;;0.17;;
42134;SDS011;28312;43.460;11.810;2023-05-14T08:57:49;0.43;;;0.22;;
42134;SDS011;28312;43.460;11.810;2023-05-14T09:01:52;0.98;;;0.30;;
42134;SDS011;28312;43.460;11.810;2023-05-14T09:05:57;0.45;;;0.30;;
42134;SDS011;28312;43.460;11.810;2023-05-14T09:10:01;0.10;;;0.10;;
42134;SDS011;28312;43.460;11.810;2023-05-14T09:14:06;0.38;;;0.30;;
42134;SDS011;28312;43.460;11.810;2023-05-14T09:18:09;0.50;;;0.28;;
42134;SDS011;28312;43.460;11.810;2023-05-14T09:22:15;0.20;;;0.20;;
42134;SDS011;28312;43.460;11.810;2023-05-14T09:26:25;0.32;;;0.28;;
42134;SDS011;28312;43.460;11.810;2023-05-14T09:30:30;0.32;;;0.30;;
42134;SDS011;28312;43.460;11.810;2023-05-14T09:34:35;0.70;;;0.35;;
42134;SDS011;28312;43.460;11.810;2023-05-14T09:38:39;0.50;;;0.30;;
42134;SDS011;28312;43.460;11.810;2023-05-14T09:42:43;0.40;;;0.30;;
42134;SDS011;28312;43.460;11.810;2023-05-14T09:46:47;0.80;;;0.40;;
42134;SDS011;28312;43.460;11.810;2023-05-14T09:50:51;0.10;;;0.10;;
42134;SDS011;28312;43.460;11.810;2023-05-14T09:54:55;0.20;;;0.17;;
42134;SDS011;28312;43.460;11.810;2023-05-14T09:58:59;0.47;;;0.32;;
42134;SDS011;28312;43.460;11.810;2023-05-14T10:03:04;0.40;;;0.10;;
42134;SDS011;28312;43.460;11.810;2023-05-14T10:07:09;0.52;;;0.28;;
42134;SDS011;28312;43.460;11.810;2023-05-14T10:11:18;0.30;;;0.20;;
42134;SDS011;28312;43.460;11.810;2023-05-14T10:15:37;0.55;;;0.30;;
42134;SDS011;28312;43.460;11.810;2023-05-14T10:19:46;0.45;;;0.30;;
42134;SDS011;28312;43.460;11.810;2023-05-14T10:23:56;0.30;;;0.20;;
42134;SDS011;28312;43.460;11.810;2023-05-14T10:27:59;0.65;;;0.38;;
42134;SDS011;28312;43.460;11.810;2023-05-14T10:32:04;0.95;;;0.32;;
42134;SDS011;28312;43.460;11.810;2023-05-14T10:36:10;0.35;;;0.28;;
42134;SDS011;28312;43.460;11.810;2023-05-14T10:40:14;0.20;;;0.20;;
42134;SDS011;28312;43.460;11.810;2023-05-14T10:44:21;0.50;;;0.30;;
42134;SDS011;28312;43.460;11.810;2023-05-14T10:48:26;0.60;;;0.35;;
42134;SDS011;28312;43.460;11.810;2023-05-14T10:52:31;0.43;;;0.20;;
42134;SDS011;28312;43.460;11.810;2023-05-14T10:56:36;0.50;;;0.30;;
42134;SDS011;28312;43.460;11.810;2023-05-14T11:00:41;0.55;;;0.28;;
42134;SDS011;28312;43.460;11.810;2023-05-14T11:05:00;2.22;;;0.50;;
42134;SDS011;28312;43.460;11.810;2023-05-14T11:09:12;0.28;;;0.20;;
42134;SDS011;28312;43.460;11.810;2023-05-14T11:13:20;0.57;;;0.40;;
42134;SDS011;28312;43.460;11.810;2023-05-14T11:17:27;0.70;;;0.30;;
42134;SDS011;28312;43.460;11.810;2023-05-14T11:21:31;0.35;;;0.28;;
42134;SDS011;28312;43.460;11.810;2023-05-14T11:25:34;0.57;;;0.40;;
42134;SDS011;28312;43.460;11.810;2023-05-14T11:29:38;0.82;;;0.40;;
42134;SDS011;28312;43.460;11.810;2023-05-14T11:33:46;0.70;;;0.30;;
42134;SDS011;28312;43.460;11.810;2023-05-14T11:37:50;0.45;;;0.38;;
42134;SDS011;28312;43.460;11.810;2023-05-14T11:41:54;1.25;;;0.60;;
42134;SDS011;28312;43.460;11.810;2023-05-14T11:45:57;0.52;;;0.32;;
42134;SDS011;28312;43.460;11.810;2023-05-14T11:50:00;0.47;;;0.32;;
42134;SDS011;28312;43.460;11.810;2023-05-14T11:54:04;0.25;;;0.25;;
42134;SDS011;28312;43.460;11.810;2023-05-14T11:58:08;0.40;;;0.28;;
42134;SDS011;28312;43.460;11.810;2023-05-14T12:02:13;0.30;;;0.20;;
42134;SDS011;28312;43.460;11.810;2023-05-14T12:06:19;0.10;;;0.10;;
42134;SDS011;28312;43.460;11.810;2023-05-14T12:10:23;0.20;;;0.20;;
42134;SDS011;28312;43.460;11.810;2023-05-14T12:14:27;0.20;;;0.20;;
42134;SDS011;28312;43.460;11.810;2023-05-14T12:18:30;0.17;;;0.17;;
42134;SDS011;28312;43.460;11.810;2023-05-14T12:22:35;0.35;;;0.22;;
42134;SDS011;28312;43.460;11.810;2023-05-14T12:26:39;0.40;;;0.30;;
42134;SDS011;28312;43.460;11.810;2023-05-14T12:30:47;0.25;;;0.25;;
42134;SDS011;28312;43.460;11.810;2023-05-14T12:34:57;0.10;;;0.10;;
42134;SDS011;28312;43.460;11.810;2023-05-14T12:39:01;0.00;;;0.00;;
42134;SDS011;28312;43.460;11.810;2023-05-14T12:43:05;0.20;;;0.20;;
42134;SDS011;28312;43.460;11.810;2023-05-14T12:47:08;0.03;;;0.03;;
42134;SDS011;28312;43.460;11.810;2023-05-14T12:51:12;0.10;;;0.10;;
42134;SDS011;28312;43.460;11.810;2023-05-14T12:55:15;0.00;;;0.00;;
42134;SDS011;28312;43.460;11.810;2023-05-14T12:59:19;0.10;;;0.10;;
42134;SDS011;28312;43.460;11.810;2023-05-14T13:03:22;0.10;;;0.10;;
42134;SDS011;28312;43.460;11.810;2023-05-14T13:07:26;0.00;;;0.00;;
42134;SDS011;28312;43.460;11.810;2023-05-14T13:11:31;0.32;;;0.20;;
42134;SDS011;28312;43.460;11.810;2023-05-14T13:15:35;0.10;;;0.10;;
42134;SDS011;28312;43.460;11.810;2023-05-14T13:19:39;0.32;;;0.32;;
42134;SDS011;28312;43.460;11.810;2023-05-14T13:23:42;0.03;;;0.03;;
42134;SDS011;28312;43.460;11.810;2023-05-14T13:27:45;0.08;;;0.08;;
42134;SDS011;28312;43.460;11.810;2023-05-14T13:31:52;0.45;;;0.20;;
42134;SDS011;28312;43.460;11.810;2023-05-14T13:35:55;0.13;;;0.10;;
42134;SDS011;28312;43.460;11.810;2023-05-14T13:39:59;0.20;;;0.10;;
42134;SDS011;28312;43.460;11.810;2023-05-14T13:44:03;0.10;;;0.10;;
42134;SDS011;28312;43.460;11.810;2023-05-14T13:48:06;0.22;;;0.20;;
42134;SDS011;28312;43.460;11.810;2023-05-14T13:52:10;0.30;;;0.17;;
42134;SDS011;28312;43.460;11.810;2023-05-14T13:56:13;0.52;;;0.25;;
42134;SDS011;28312;43.460;11.810;2023-05-14T14:00:17;0.00;;;0.00;;
42134;SDS011;28312;43.460;11.810;2023-05-14T14:04:21;0.00;;;0.00;;
42134;SDS011;28312;43.460;11.810;2023-05-14T14:08:25;0.10;;;0.10;;
42134;SDS011;28312;43.460;11.810;2023-05-14T14:12:29;0.10;;;0.10;;
42134;SDS011;28312;43.460;11.810;2023-05-14T14:16:35;0.10;;;0.10;;
42134;SDS011;28312;43.460;11.810;2023-05-14T14:20:39;0.00;;;0.00;;
42134;SDS011;28312;43.460;11.810;2023-05-14T14:24:42;0.00;;;0.00;;
42134;SDS011;28312;43.460;11.810;2023-05-14T14:28:46;0.10;;;0.10;;
42134;SDS011;28312;43.460;11.810;2023-05-14T14:32:49;0.05;;;0.00;;
42134;SDS011;28312;43.460;11.810;2023-05-14T14:36:53;0.10;;;0.10;;
42134;SDS011;28312;43.460;11.810;2023-05-14T14:40:56;0.00;;;0.00;;
42134;SDS011;28312;43.460;11.810;2023-05-14T14:45:00;0.52;;;0.32;;
42134;SDS011;28312;43.460;11.810;2023-05-14T14:49:03;0.38;;;0.20;;
42134;SDS011;28312;43.460;11.810;2023-05-14T14:53:07;0.43;;;0.30;;
42134;SDS011;28312;43.460;11.810;2023-05-14T14:57:10;0.45;;;0.28;;
42134;SDS011;28312;43.460;11.810;2023-05-14T15:01:14;0.10;;;0.10;;
42134;SDS011;28312;43.460;11.810;2023-05-14T15:05:18;0.40;;;0.20;;
42134;SDS011;28312;43.460;11.810;2023-05-14T15:09:21;0.52;;;0.20;;
42134;SDS011;28312;43.460;11.810;2023-05-14T15:13:25;0.17;;;0.10;;
42134;SDS011;28312;43.460;11.810;2023-05-14T15:17:28;0.20;;;0.15;;
42134;SDS011;28312;43.460;11.810;2023-05-14T15:21:32;0.10;;;0.10;;
42134;SDS011;28312;43.460;11.810;2023-05-14T15:25:37;0.05;;;0.00;;
42134;SDS011;28312;43.460;11.810;2023-05-14T15:29:40;0.20;;;0.10;;
42134;SDS011;28312;43.460;11.810;2023-05-14T15:33:46;0.00;;;0.00;;
42134;SDS011;28312;43.460;11.810;2023-05-14T15:37:50;0.20;;;0.20;;
42134;SDS011;28312;43.460;11.810;2023-05-14T15:45:59;0.47;;;0.30;;
42134;SDS011;28312;43.460;11.810;2023-05-14T15:50:03;0.10;;;0.10;;
42134;SDS011;28312;43.460;11.810;2023-05-14T15:54:07;0.05;;;0.05;;
42134;SDS011;28312;43.460;11.810;2023-05-14T15:58:10;0.00;;;0.00;;
42134;SDS011;28312;43.460;11.810;2023-05-14T16:02:14;0.10;;;0.10;;
42134;SDS011;28312;43.460;11.810;2023-05-14T16:06:17;0.00;;;0.00;;
42134;SDS011;28312;43.460;11.810;2023-05-14T16:10:21;0.10;;;0.10;;
42134;SDS011;28312;43.460;11.810;2023-05-14T16:14:25;0.13;;;0.13;;
42134;SDS011;28312;43.460;11.810;2023-05-14T16:18:28;0.10;;;0.10;;
42134;SDS011;28312;43.460;11.810;2023-05-14T16:22:32;0.10;;;0.10;;
42134;SDS011;28312;43.460;11.810;2023-05-14T16:26:37;0.45;;;0.10;;
42134;SDS011;28312;43.460;11.810;2023-05-14T16:30:41;0.08;;;0.08;;
42134;SDS011;28312;43.460;11.810;2023-05-14T16:34:44;0.00;;;0.00;;
42134;SDS011;28312;43.460;11.810;2023-05-14T16:38:51;0.00;;;0.00;;
42134;SDS011;28312;43.460;11.810;2023-05-14T16:43:08;0.15;;;0.10;;
42134;SDS011;28312;43.460;11.810;2023-05-14T16:47:11;0.10;;;0.00;;
42134;SDS011;28312;43.460;11.810;2023-05-14T16:51:15;0.20;;;0.20;;
42134;SDS011;28312;43.460;11.810;2023-05-14T16:55:18;0.10;;;0.10;;
42134;SDS011;28312;43.460;11.810;2023-05-14T16:59:22;0.00;;;0.00;;
42134;SDS011;28312;43.460;11.810;2023-05-14T17:03:26;0.10;;;0.10;;
42134;SDS011;28312;43.460;11.810;2023-05-14T17:07:30;0.20;;;0.10;;
42134;SDS011;28312;43.460;11.810;2023-05-14T17:11:33;0.00;;;0.00;;
42134;SDS011;28312;43.460;11.810;2023-05-14T17:15:36;0.10;;;0.10;;
42134;SDS011;28312;43.460;11.810;2023-05-14T17:19:41;0.10;;;0.10;;
42134;SDS011;28312;43.460;11.810;2023-05-14T17:23:45;0.08;;;0.08;;
42134;SDS011;28312;43.460;11.810;2023-05-14T17:27:48;0.10;;;0.10;;
42134;SDS011;28312;43.460;11.810;2023-05-14T17:31:51;0.28;;;0.15;;
42134;SDS011;28312;43.460;11.810;2023-05-14T17:35:55;0.05;;;0.05;;
42134;SDS011;28312;43.460;11.810;2023-05-14T17:39:58;0.13;;;0.03;;
42134;SDS011;28312;43.460;11.810;2023-05-14T17:44:02;0.10;;;0.10;;
42134;SDS011;28312;43.460;11.810;2023-05-14T17:48:05;0.15;;;0.15;;
42134;SDS011;28312;43.460;11.810;2023-05-14T17:52:09;0.28;;;0.20;;
42134;SDS011;28312;43.460;11.810;2023-05-14T17:56:12;0.10;;;0.10;;
42134;SDS011;28312;43.460;11.810;2023-05-14T18:00:17;0.00;;;0.00;;
42134;SDS011;28312;43.460;11.810;2023-05-14T18:04:20;0.10;;;0.10;;
42134;SDS011;28312;43.460;11.810;2023-05-14T18:08:24;0.20;;;0.20;;
42134;SDS011;28312;43.460;11.810;2023-05-14T18:12:28;0.20;;;0.10;;
42134;SDS011;28312;43.460;11.810;2023-05-14T18:16:32;0.20;;;0.20;;
42134;SDS011;28312;43.460;11.810;2023-05-14T18:20:35;0.20;;;0.20;;
42134;SDS011;28312;43.460;11.810;2023-05-14T18:24:40;0.10;;;0.10;;
42134;SDS011;28312;43.460;11.810;2023-05-14T18:28:48;0.32;;;0.30;;
42134;SDS011;28312;43.460;11.810;2023-05-14T18:32:51;0.32;;;0.22;;
42134;SDS011;28312;43.460;11.810;2023-05-14T18:36:55;0.17;;;0.10;;
42134;SDS011;28312;43.460;11.810;2023-05-14T18:40:59;0.20;;;0.13;;
42134;SDS011;28312;43.460;11.810;2023-05-14T18:45:03;0.10;;;0.10;;
42134;SDS011;28312;43.460;11.810;2023-05-14T18:49:08;0.10;;;0.10;;
42134;SDS011;28312;43.460;11.810;2023-05-14T18:53:12;0.30;;;0.30;;
42134;SDS011;28312;43.460;11.810;2023-05-14T18:57:17;0.10;;;0.10;;
42134;SDS011;28312;43.460;11.810;2023-05-14T19:01:20;0.25;;;0.20;;
42134;SDS011;28312;43.460;11.810;2023-05-14T19:05:27;0.30;;;0.30;;
42134;SDS011;28312;43.460;11.810;2023-05-14T19:09:31;0.40;;;0.30;;
42134;SDS011;28312;43.460;11.810;2023-05-14T19:13:35;0.57;;;0.40;;
42134;SDS011;28312;43.460;11.810;2023-05-14T19:17:39;0.13;;;0.13;;
42134;SDS011;28312;43.460;11.810;2023-05-14T19:21:43;0.25;;;0.25;;
42134;SDS011;28312;43.460;11.810;2023-05-14T19:25:47;0.20;;;0.20;;
42134;SDS011;28312;43.460;11.810;2023-05-14T19:29:51;0.20;;;0.20;;
42134;SDS011;28312;43.460;11.810;2023-05-14T19:33:54;0.20;;;0.20;;
42134;SDS011;28312;43.460;11.810;2023-05-14T19:37:58;0.20;;;0.20;;
42134;SDS011;28312;43.460;11.810;2023-05-14T19:42:02;0.55;;;0.40;;
42134;SDS011;28312;43.460;11.810;2023-05-14T19:46:06;0.35;;;0.28;;
42134;SDS011;28312;43.460;11.810;2023-05-14T19:50:10;0.22;;;0.22;;
42134;SDS011;28312;43.460;11.810;2023-05-14T19:54:13;0.40;;;0.30;;
42134;SDS011;28312;43.460;11.810;2023-05-14T19:58:18;0.40;;;0.40;;
42134;SDS011;28312;43.460;11.810;2023-05-14T20:02:23;0.43;;;0.30;;
42134;SDS011;28312;43.460;11.810;2023-05-14T20:06:27;0.43;;;0.30;;
42134;SDS011;28312;43.460;11.810;2023-05-14T20:10:31;0.47;;;0.30;;
42134;SDS011;28312;43.460;11.810;2023-05-14T20:14:35;0.55;;;0.40;;
42134;SDS011;28312;43.460;11.810;2023-05-14T20:18:42;1.13;;;0.50;;
42134;SDS011;28312;43.460;11.810;2023-05-14T20:22:46;0.60;;;0.40;;
42134;SDS011;28312;43.460;11.810;2023-05-14T20:26:50;0.65;;;0.50;;
42134;SDS011;28312;43.460;11.810;2023-05-14T20:30:53;0.73;;;0.47;;
42134;SDS011;28312;43.460;11.810;2023-05-14T20:34:58;16.17;;;9.25;;
42134;SDS011;28312;43.460;11.810;2023-05-14T20:39:04;12.63;;;6.53;;
42134;SDS011;28312;43.460;11.810;2023-05-14T20:43:09;4.32;;;2.45;;
42134;SDS011;28312;43.460;11.810;2023-05-14T20:47:12;4.18;;;1.67;;
42134;SDS011;28312;43.460;11.810;2023-05-14T20:51:20;4.00;;;1.35;;
42134;SDS011;28312;43.460;11.810;2023-05-14T20:55:24;2.05;;;1.23;;
42134;SDS011;28312;43.460;11.810;2023-05-14T20:59:28;2.15;;;1.30;;
42134;SDS011;28312;43.460;11.810;2023-05-14T21:03:31;1.85;;;1.00;;
42134;SDS011;28312;43.460;11.810;2023-05-14T21:07:36;1.23;;;0.73;;
42134;SDS011;28312;43.460;11.810;2023-05-14T21:11:40;1.40;;;0.75;;
42134;SDS011;28312;43.460;11.810;2023-05-14T21:15:44;2.33;;;1.13;;
42134;SDS011;28312;43.460;11.810;2023-05-14T21:19:48;1.42;;;0.88;;
42134;SDS011;28312;43.460;11.810;2023-05-14T21:23:51;1.42;;;0.73;;
42134;SDS011;28312;43.460;11.810;2023-05-14T21:27:56;1.00;;;0.65;;
42134;SDS011;28312;43.460;11.810;2023-05-14T21:31:59;1.02;;;0.60;;
42134;SDS011;28312;43.460;11.810;2023-05-14T21:36:03;1.05;;;0.65;;
42134;SDS011;28312;43.460;11.810;2023-05-14T21:40:07;0.88;;;0.52;;
42134;SDS011;28312;43.460;11.810;2023-05-14T21:44:10;0.80;;;0.45;;
42134;SDS011;28312;43.460;11.810;2023-05-14T21:48:14;1.00;;;0.70;;
42134;SDS011;28312;43.460;11.810;2023-05-14T21:52:18;1.33;;;0.75;;
42134;SDS011;28312;43.460;11.810;2023-05-14T21:56:22;1.17;;;0.52;;
42134;SDS011;28312;43.460;11.810;2023-05-14T22:00:26;0.60;;;0.50;;
42134;SDS011;28312;43.460;11.810;2023-05-14T22:04:30;0.47;;;0.45;;
42134;SDS011;28312;43.460;11.810;2023-05-14T22:08:34;1.58;;;0.63;;
42134;SDS011;28312;43.460;11.810;2023-05-14T22:12:37;1.00;;;0.60;;
42134;SDS011;28312;43.460;11.810;2023-05-14T22:16:42;0.70;;;0.50;;
42134;SDS011;28312;43.460;11.810;2023-05-14T22:20:45;0.73;;;0.57;;
42134;SDS011;28312;43.460;11.810;2023-05-14T22:24:48;0.52;;;0.35;;
42134;SDS011;28312;43.460;11.810;2023-05-14T22:28:52;0.60;;;0.40;;
42134;SDS011;28312;43.460;11.810;2023-05-14T22:32:56;0.70;;;0.50;;
42134;SDS011;28312;43.460;11.810;2023-05-14T22:36:59;0.73;;;0.45;;
42134;SDS011;28312;43.460;11.810;2023-05-14T22:41:02;0.38;;;0.35;;
42134;SDS011;28312;43.460;11.810;2023-05-14T22:45:06;0.40;;;0.40;;
42134;SDS011;28312;43.460;11.810;2023-05-14T22:49:11;0.70;;;0.50;;
42134;SDS011;28312;43.460;11.810;2023-05-14T22:53:14;1.30;;;0.50;;
42134;SDS011;28312;43.460;11.810;2023-05-14T22:57:17;0.50;;;0.50;;
42134;SDS011;28312;43.460;11.810;2023-05-14T23:01:21;0.43;;;0.40;;
42134;SDS011;28312;43.460;11.810;2023-05-14T23:05:24;0.60;;;0.52;;
42134;SDS011;28312;43.460;11.810;2023-05-14T23:09:28;0.50;;;0.43;;
42134;SDS011;28312;43.460;11.810;2023-05-14T23:13:32;0.52;;;0.40;;
42134;SDS011;28312;43.460;11.810;2023-05-14T23:17:36;0.30;;;0.30;;
42134;SDS011;28312;43.460;11.810;2023-05-14T23:21:40;0.40;;;0.40;;
42134;SDS011;28312;43.460;11.810;2023-05-14T23:25:43;0.63;;;0.40;;
42134;SDS011;28312;43.460;11.810;2023-05-14T23:29:46;0.30;;;0.30;;
42134;SDS011;28312;43.460;11.810;2023-05-14T23:33:50;0.68;;;0.63;;
42134;SDS011;28312;43.460;11.810;2023-05-14T23:37:53;0.82;;;0.43;;
42134;SDS011;28312;43.460;11.810;2023-05-14T23:41:56;0.45;;;0.40;;
42134;SDS011;28312;43.460;11.810;2023-05-14T23:46:00;0.63;;;0.60;;
42134;SDS011;28312;43.460;11.810;2023-05-14T23:50:03;0.50;;;0.40;;
42134;SDS011;28312;43.460;11.810;2023-05-14T23:54:08;1.02;;;0.60;;
42134;SDS011;28312;43.460;11.810;2023-05-14T23:58:11;0.70;;;0.50;;
